createdAt,value
2022-10-09T00:00:03.340Z,70.81
2022-10-09T00:02:41.968Z,71.00
2022-10-09T00:05:12.680Z,71.16
2022-10-09T00:07:43.183Z,72.67
2022-10-09T00:10:13.567Z,71.04
2022-10-09T00:12:44.035Z,73.89
2022-10-09T00:15:14.785Z,73.50
2022-10-09T00:17:45.337Z,73.65
2022-10-09T00:20:16.153Z,74.75
2022-10-09T00:22:46.971Z,73.06
2022-10-09T00:25:17.641Z,74.84
2022-10-09T00:27:48.014Z,74.85
2022-10-09T00:30:18.855Z,74.59
2022-10-09T00:32:49.518Z,75.64
2022-10-09T00:35:20.323Z,74.42
2022-10-09T00:37:50.918Z,76.24
2022-10-09T00:40:21.890Z,75.32
2022-10-09T00:43:01.640Z,77.21
2022-10-09T00:45:33.056Z,77.11
2022-10-09T00:48:07.933Z,77.16
2022-10-09T00:50:42.888Z,77.22
2022-10-09T00:53:17.999Z,72.57
2022-10-09T00:55:48.957Z,71.97
2022-10-09T00:58:20.314Z,71.61
2022-10-09T01:00:51.224Z,71.21
2022-10-09T01:03:21.646Z,71.53
2022-10-09T01:06:37.818Z,71.56
2022-10-09T01:09:27.281Z,71.40
2022-10-09T01:12:28.104Z,71.21
2022-10-09T01:15:18.775Z,71.57
2022-10-09T01:17:55.879Z,71.13
2022-10-09T01:20:34.887Z,71.64
2022-10-09T01:23:28.933Z,71.32
2022-10-09T01:26:11.227Z,76.01
2022-10-09T01:28:41.967Z,78.50
2022-10-09T01:31:14.280Z,78.15
2022-10-09T01:33:46.146Z,78.50
2022-10-09T01:36:19.384Z,79.07
2022-10-09T01:38:50.278Z,79.21
2022-10-09T01:41:22.246Z,79.61
2022-10-09T01:43:52.786Z,78.74
2022-10-09T01:46:25.074Z,76.37
2022-10-09T01:49:10.768Z,77.55
2022-10-09T01:52:01.987Z,75.10
2022-10-09T01:54:52.031Z,75.09
2022-10-09T01:57:33.796Z,74.24
2022-10-09T02:00:08.840Z,74.21
2022-10-09T02:02:44.460Z,73.74
2022-10-09T02:05:24.160Z,73.34
2022-10-09T02:07:56.567Z,73.69
2022-10-09T02:10:28.458Z,73.47
2022-10-09T02:13:01.500Z,73.06
2022-10-09T02:15:57.936Z,73.54
2022-10-09T02:18:44.263Z,73.34
2022-10-09T02:21:24.112Z,73.31
2022-10-09T02:23:58.929Z,73.19
2022-10-09T02:26:29.405Z,72.61
2022-10-09T02:29:00.382Z,73.00
2022-10-09T02:31:38.674Z,72.34
2022-10-09T02:34:12.006Z,72.18
2022-10-09T02:36:42.500Z,72.77
2022-10-09T02:39:13.527Z,72.19
2022-10-09T02:41:44.086Z,72.25
2022-10-09T02:44:14.539Z,72.31
2022-10-09T02:46:45.029Z,72.54
2022-10-09T02:49:15.605Z,72.70
2022-10-09T02:51:46.090Z,72.09
2022-10-09T02:54:16.926Z,72.24
2022-10-09T02:56:47.380Z,72.55
2022-10-09T02:59:17.774Z,72.48
2022-10-09T03:01:48.285Z,72.46
2022-10-09T03:04:18.803Z,71.97
2022-10-09T03:06:49.217Z,72.16
2022-10-09T03:09:19.564Z,72.38
2022-10-09T03:11:49.904Z,72.16
2022-10-09T03:14:20.235Z,71.94
2022-10-09T03:16:50.696Z,72.20
2022-10-09T03:19:21.152Z,75.86
2022-10-09T03:21:51.644Z,77.04
2022-10-09T03:24:22.624Z,76.87
2022-10-09T03:26:53.491Z,77.45
2022-10-09T03:29:24.047Z,77.63
2022-10-09T03:31:54.617Z,77.14
2022-10-09T03:34:25.522Z,77.82
2022-10-09T03:36:56.435Z,78.10
2022-10-09T03:39:26.892Z,78.02
2022-10-09T03:41:57.490Z,78.12
2022-10-09T03:44:28.020Z,78.67
2022-10-09T03:46:58.422Z,78.28
2022-10-09T03:49:29.062Z,77.96
2022-10-09T03:51:59.614Z,78.58
2022-10-09T03:54:30.173Z,77.83
2022-10-09T03:57:00.808Z,78.96
2022-10-09T03:59:31.209Z,78.59
2022-10-09T04:02:01.752Z,78.14
2022-10-09T04:04:32.141Z,78.34
2022-10-09T04:07:02.901Z,78.30
2022-10-09T04:09:33.398Z,76.88
2022-10-09T04:12:04.764Z,77.89
2022-10-09T04:14:35.267Z,78.07
2022-10-09T04:17:05.756Z,78.15
2022-10-09T04:19:36.260Z,78.71
2022-10-09T04:22:06.696Z,78.33
2022-10-09T04:24:37.113Z,77.95
2022-10-09T04:27:07.760Z,78.01
2022-10-09T04:29:38.636Z,78.31
2022-10-09T04:32:09.476Z,78.50
2022-10-09T04:34:39.977Z,77.68
2022-10-09T04:37:10.377Z,77.59
2022-10-09T04:39:40.754Z,77.52
2022-10-09T04:42:11.539Z,77.96
2022-10-09T04:44:42.066Z,76.81
2022-10-09T04:47:12.519Z,76.05
2022-10-09T04:49:43.292Z,76.07
2022-10-09T04:52:13.693Z,75.56
2022-10-09T04:54:44.176Z,75.51
2022-10-09T04:57:15.143Z,74.72
2022-10-09T04:59:45.993Z,74.85
2022-10-09T05:02:16.398Z,74.37
2022-10-09T05:04:48.465Z,74.18
2022-10-09T05:07:19.212Z,74.15
2022-10-09T05:09:50.005Z,74.21
2022-10-09T05:12:20.384Z,75.32
2022-10-09T05:14:50.818Z,75.41
2022-10-09T05:17:23.519Z,75.84
2022-10-09T05:19:54.287Z,75.28
2022-10-09T05:22:24.748Z,75.98
2022-10-09T05:24:55.306Z,75.78
2022-10-09T05:27:25.818Z,76.35
2022-10-09T05:29:56.321Z,76.07
2022-10-09T05:32:26.811Z,76.17
2022-10-09T05:34:57.605Z,76.00
2022-10-09T05:37:28.561Z,76.24
2022-10-09T05:39:59.008Z,75.49
2022-10-09T05:42:29.592Z,74.37
2022-10-09T05:45:00.022Z,73.30
2022-10-09T05:47:32.206Z,71.85
2022-10-09T05:50:02.909Z,71.04
2022-10-09T05:52:33.357Z,69.60
2022-10-09T05:55:04.232Z,69.87
2022-10-09T05:57:36.887Z,68.64
2022-10-09T06:00:08.055Z,68.82
2022-10-09T06:02:42.559Z,68.27
2022-10-09T06:05:13.176Z,67.29
2022-10-09T06:07:43.527Z,66.37
2022-10-09T06:10:14.291Z,65.80
2022-10-09T06:12:44.706Z,65.54
2022-10-09T06:15:15.365Z,64.89
2022-10-09T06:17:45.734Z,64.18
2022-10-09T06:20:17.991Z,63.60
2022-10-09T06:22:48.698Z,62.73
2022-10-09T06:25:19.243Z,62.76
2022-10-09T06:27:49.621Z,61.67
2022-10-09T06:30:19.999Z,61.62
2022-10-09T06:32:50.951Z,61.64
2022-10-09T06:35:21.834Z,61.13
2022-10-09T06:37:52.204Z,60.69
2022-10-09T06:40:22.621Z,59.84
2022-10-09T06:42:53.156Z,60.03
2022-10-09T06:46:08.404Z,59.24
2022-10-09T06:48:24.465Z,58.88
2022-10-09T06:50:54.913Z,59.24
2022-10-09T06:53:25.353Z,58.86
2022-10-09T06:55:58.652Z,58.63
2022-10-09T06:58:29.875Z,58.24
2022-10-09T07:01:16.192Z,55.21
2022-10-09T07:03:49.288Z,57.06
2022-10-09T07:06:25.031Z,54.86
2022-10-09T07:09:02.429Z,56.23
2022-10-09T07:11:53.879Z,54.65
2022-10-09T07:14:24.330Z,56.84
2022-10-09T07:16:55.007Z,56.31
2022-10-09T07:19:25.368Z,56.00
2022-10-09T07:21:56.147Z,55.64
2022-10-09T07:24:26.762Z,56.11
2022-10-09T07:26:58.389Z,55.76
2022-10-09T07:29:28.797Z,55.41
2022-10-09T07:31:59.226Z,55.65
2022-10-09T07:34:29.571Z,54.85
2022-10-09T07:37:00.360Z,54.54
2022-10-09T07:39:31.274Z,54.78
2022-10-09T07:42:01.752Z,54.83
2022-10-09T07:44:32.413Z,54.42
2022-10-09T07:47:03.218Z,54.34
2022-10-09T07:49:33.596Z,53.78
2022-10-09T07:52:04.023Z,53.74
2022-10-09T07:54:34.675Z,53.33
2022-10-09T07:57:05.190Z,53.81
2022-10-09T07:59:35.558Z,53.50
2022-10-09T08:02:05.997Z,52.72
2022-10-09T08:04:38.919Z,52.47
2022-10-09T08:07:09.301Z,53.10
2022-10-09T08:09:40.878Z,52.50
2022-10-09T08:12:11.732Z,52.34
2022-10-09T08:14:42.379Z,52.33
2022-10-09T08:17:13.263Z,51.64
2022-10-09T08:19:43.725Z,51.90
2022-10-09T08:22:14.340Z,51.52
2022-10-09T08:24:44.838Z,51.43
2022-10-09T08:27:15.783Z,51.77
2022-10-09T08:29:46.144Z,51.70
2022-10-09T08:32:16.694Z,51.68
2022-10-09T08:34:48.726Z,51.57
2022-10-09T08:37:19.927Z,51.89
2022-10-09T08:39:50.380Z,51.25
2022-10-09T08:42:44.139Z,50.25
2022-10-09T08:45:19.085Z,50.19
2022-10-09T08:47:57.571Z,49.85
2022-10-09T08:50:33.775Z,49.68
2022-10-09T08:53:06.585Z,49.90
2022-10-09T08:55:53.430Z,49.29
2022-10-09T08:58:27.109Z,49.96
2022-10-09T09:01:06.403Z,48.71
2022-10-09T09:03:48.413Z,50.00
2022-10-09T09:06:37.085Z,48.93
2022-10-09T09:09:40.823Z,48.60
2022-10-09T09:12:16.634Z,50.32
2022-10-09T09:14:57.597Z,48.26
2022-10-09T09:17:49.337Z,48.42
2022-10-09T09:20:26.654Z,48.88
2022-10-09T09:23:00.569Z,49.20
2022-10-09T09:25:36.622Z,48.94
2022-10-09T09:28:36.913Z,48.62
2022-10-09T09:31:29.669Z,48.52
2022-10-09T09:34:00.152Z,49.73
2022-10-09T09:36:40.961Z,49.42
2022-10-09T09:42:16.034Z,50.51
2022-10-09T09:45:23.337Z,50.67
2022-10-09T09:47:59.023Z,51.74
2022-10-09T09:51:10.201Z,51.69
2022-10-09T09:53:38.182Z,52.44
2022-10-09T09:56:15.327Z,52.79
2022-10-09T09:58:51.714Z,53.56
2022-10-09T10:01:23.595Z,55.04
2022-10-09T10:04:00.226Z,62.51
2022-10-09T10:06:36.974Z,64.75
2022-10-09T10:09:16.307Z,65.90
2022-10-09T10:12:04.636Z,67.54
2022-10-09T10:14:36.649Z,68.80
2022-10-09T10:17:07.104Z,68.55
2022-10-09T10:19:40.084Z,68.76
2022-10-09T10:22:26.102Z,69.20
2022-10-09T10:25:00.535Z,69.11
2022-10-09T10:27:42.137Z,69.63
2022-10-09T10:30:19.311Z,70.80
2022-10-09T10:32:57.555Z,71.54
2022-10-09T10:35:45.884Z,71.53
2022-10-09T10:38:16.335Z,72.20
2022-10-09T10:41:04.830Z,72.20
2022-10-09T10:43:45.756Z,71.95
2022-10-09T10:46:39.379Z,72.74
2022-10-09T10:49:13.002Z,72.63
2022-10-09T10:51:43.341Z,72.49
2022-10-09T10:54:28.550Z,72.51
2022-10-09T10:57:08.867Z,73.06
2022-10-09T11:00:07.618Z,73.11
2022-10-09T11:03:23.751Z,73.73
2022-10-09T11:06:08.655Z,74.16
2022-10-09T11:09:06.839Z,74.73
2022-10-09T11:11:40.192Z,74.55
2022-10-09T11:14:25.373Z,75.10
2022-10-09T11:16:58.270Z,74.72
2022-10-09T11:20:00.718Z,75.45
2022-10-09T11:22:50.426Z,75.68
2022-10-09T11:25:47.815Z,75.10
2022-10-09T11:28:28.727Z,75.49
2022-10-09T11:31:17.873Z,75.07
2022-10-09T11:33:52.668Z,75.31
2022-10-09T11:36:39.301Z,75.65
2022-10-09T11:39:27.905Z,76.02
2022-10-09T11:41:59.488Z,75.90
2022-10-09T11:44:47.867Z,76.09
2022-10-09T11:47:39.052Z,76.11
2022-10-09T11:50:40.218Z,76.35
2022-10-09T11:53:26.417Z,76.77
2022-10-09T11:56:20.970Z,76.47
2022-10-09T11:59:03.629Z,76.82
2022-10-09T12:01:40.976Z,76.94
2022-10-09T12:04:14.186Z,76.95
2022-10-09T12:06:51.729Z,76.57
2022-10-09T12:09:28.166Z,76.46
2022-10-09T12:12:04.539Z,76.31
2022-10-09T12:14:38.727Z,76.08
2022-10-09T12:17:24.532Z,76.16
2022-10-09T12:20:16.903Z,75.46
2022-10-09T12:23:07.263Z,76.44
2022-10-09T12:25:47.392Z,75.91
2022-10-09T12:28:37.612Z,75.48
2022-10-09T12:31:19.147Z,75.15
2022-10-09T12:34:03.647Z,75.39
2022-10-09T12:36:35.233Z,75.47
2022-10-09T12:39:24.059Z,75.30
2022-10-09T12:41:58.421Z,75.52
2022-10-09T12:44:35.663Z,75.34
2022-10-09T12:47:16.071Z,75.46
2022-10-09T12:50:04.087Z,75.33
2022-10-09T12:52:35.142Z,75.77
2022-10-09T12:55:16.990Z,75.31
2022-10-09T12:57:47.537Z,76.25
2022-10-09T13:00:18.302Z,75.77
2022-10-09T13:02:49.142Z,75.96
2022-10-09T13:05:20.001Z,75.43
2022-10-09T13:07:55.807Z,75.43
2022-10-09T13:10:26.525Z,75.73
2022-10-09T13:12:59.952Z,75.58
2022-10-09T13:15:37.963Z,75.82
2022-10-09T13:18:25.853Z,76.16
2022-10-09T13:21:23.373Z,75.95
2022-10-09T13:23:54.138Z,76.23
2022-10-09T13:26:30.903Z,75.52
2022-10-09T13:29:03.775Z,75.64
2022-10-09T13:31:38.143Z,76.13
2022-10-09T13:34:15.381Z,76.12
2022-10-09T13:36:46.175Z,75.97
2022-10-09T13:39:17.231Z,76.06
2022-10-09T13:41:50.173Z,75.63
2022-10-09T13:44:20.969Z,76.09
2022-10-09T13:46:53.876Z,75.86
2022-10-09T13:49:24.636Z,75.56
2022-10-09T13:51:55.811Z,75.38
2022-10-09T13:54:26.915Z,75.86
2022-10-09T13:56:58.337Z,76.16
2022-10-09T13:59:28.970Z,75.57
2022-10-09T14:02:00.181Z,75.89
2022-10-09T14:04:31.634Z,75.53
2022-10-09T14:07:02.327Z,75.62
2022-10-09T14:09:33.181Z,76.32
2022-10-09T14:12:04.199Z,75.63
2022-10-09T14:14:35.366Z,75.46
2022-10-09T14:17:06.219Z,75.61
2022-10-09T14:19:36.952Z,75.49
2022-10-09T14:22:07.726Z,76.21
2022-10-09T14:24:38.795Z,75.53
2022-10-09T14:27:09.313Z,75.83
2022-10-09T14:29:40.068Z,75.69
2022-10-09T14:32:10.715Z,75.80
2022-10-09T14:34:41.498Z,75.40
2022-10-09T14:37:23.917Z,75.64
2022-10-09T14:40:03.074Z,76.22
2022-10-09T14:42:33.850Z,75.80
2022-10-09T14:45:04.582Z,75.28
2022-10-09T14:47:35.146Z,75.28
2022-10-09T14:50:06.883Z,75.04
2022-10-09T14:52:40.326Z,75.19
2022-10-09T14:55:11.395Z,73.79
2022-10-09T14:57:41.753Z,72.30
2022-10-09T15:00:12.968Z,71.30
2022-10-09T15:05:19.151Z,70.01
2022-10-09T15:07:49.820Z,68.69
2022-10-09T15:10:20.616Z,67.90
2022-10-09T15:12:51.057Z,67.65
2022-10-09T15:15:21.504Z,66.62
2022-10-09T15:17:52.358Z,65.68
2022-10-09T15:20:22.902Z,65.91
2022-10-09T15:22:53.384Z,64.70
2022-10-09T15:25:24.053Z,63.61
2022-10-09T15:27:55.354Z,63.11
2022-10-09T15:30:26.333Z,63.17
2022-10-09T15:32:58.111Z,64.82
2022-10-09T15:35:28.536Z,64.50
2022-10-09T15:37:59.125Z,64.02
2022-10-09T15:40:30.074Z,64.13
2022-10-09T15:43:00.467Z,63.28
2022-10-09T15:45:30.902Z,63.04
2022-10-09T15:48:01.323Z,62.47
2022-10-09T15:50:31.689Z,62.07
2022-10-09T15:53:02.281Z,61.51
2022-10-09T15:55:32.660Z,61.27
2022-10-09T15:58:03.122Z,60.95
2022-10-09T16:00:38.379Z,59.10
2022-10-09T16:03:09.644Z,60.42
2022-10-09T16:05:41.994Z,60.82
2022-10-09T16:08:13.936Z,59.82
2022-10-09T16:10:49.016Z,59.28
2022-10-09T16:13:20.655Z,59.12
2022-10-09T16:15:51.851Z,58.96
2022-10-09T16:18:24.183Z,58.50
2022-10-09T16:20:54.664Z,58.76
2022-10-09T16:23:25.078Z,57.97
2022-10-09T16:26:01.197Z,56.04
2022-10-09T16:28:32.419Z,57.28
2022-10-09T16:31:03.265Z,57.74
2022-10-09T16:33:33.681Z,57.43
2022-10-09T16:36:11.640Z,54.64
2022-10-09T16:38:43.175Z,56.51
2022-10-09T16:41:19.363Z,54.69
2022-10-09T16:43:52.412Z,56.34
2022-10-09T16:46:30.404Z,56.25
2022-10-09T16:49:02.209Z,56.02
2022-10-09T16:51:37.928Z,54.80
2022-10-09T16:54:08.568Z,55.69
2022-10-09T16:56:41.316Z,54.99
2022-10-09T16:59:14.931Z,53.77
2022-10-09T17:01:46.560Z,55.16
2022-10-09T17:04:17.836Z,54.67
2022-10-09T17:06:48.338Z,54.38
2022-10-09T17:09:19.168Z,54.41
2022-10-09T17:11:49.867Z,54.51
2022-10-09T17:14:20.395Z,54.38
2022-10-09T17:16:50.965Z,54.41
2022-10-09T17:19:22.755Z,54.56
2022-10-09T17:21:53.192Z,54.32
2022-10-09T17:24:23.700Z,53.79
2022-10-09T17:26:54.243Z,53.59
2022-10-09T17:29:25.052Z,53.27
2022-10-09T17:31:55.537Z,53.47
2022-10-09T17:34:26.186Z,53.19
2022-10-09T17:36:57.614Z,53.43
2022-10-09T17:39:28.288Z,53.14
2022-10-09T17:41:59.138Z,53.00
2022-10-09T17:44:32.899Z,53.23
2022-10-09T17:47:04.345Z,52.70
2022-10-09T17:49:34.807Z,53.11
2022-10-09T17:52:05.286Z,52.60
2022-10-09T17:54:35.801Z,52.47
2022-10-09T17:57:08.081Z,52.42
2022-10-09T17:59:39.074Z,52.31
2022-10-09T18:02:09.562Z,52.47
2022-10-09T18:04:40.181Z,52.27
2022-10-09T18:07:10.650Z,52.17
2022-10-09T18:09:41.126Z,52.42
2022-10-09T18:12:11.576Z,52.39
2022-10-09T18:14:42.117Z,52.01
2022-10-09T18:17:12.422Z,52.05
2022-10-09T18:19:42.870Z,51.46
2022-10-09T18:22:13.401Z,51.91
2022-10-09T18:24:44.482Z,51.74
2022-10-09T18:27:14.929Z,51.54
2022-10-09T18:29:45.321Z,51.56
2022-10-09T18:32:15.695Z,51.63
2022-10-09T18:34:46.711Z,51.51
2022-10-09T18:37:17.448Z,51.26
2022-10-09T18:39:49.511Z,51.08
2022-10-09T18:42:19.940Z,51.42
2022-10-09T18:44:50.310Z,50.95
2022-10-09T18:47:23.769Z,51.32
2022-10-09T18:49:57.795Z,50.95
2022-10-09T18:52:28.450Z,50.91
2022-10-09T18:55:00.506Z,50.96
2022-10-09T18:57:30.997Z,50.96
2022-10-09T19:00:03.194Z,51.07
2022-10-09T19:02:33.790Z,50.70
2022-10-09T19:05:04.981Z,50.99
2022-10-09T19:07:35.540Z,50.78
2022-10-09T19:10:08.025Z,50.96
2022-10-09T19:12:38.379Z,50.71
2022-10-09T19:15:12.029Z,50.32
2022-10-09T19:17:43.099Z,50.54
2022-10-09T19:20:13.599Z,50.35
2022-10-09T19:22:44.019Z,50.43
2022-10-09T19:25:14.573Z,50.38
2022-10-09T19:27:45.358Z,50.21
2022-10-09T19:30:16.372Z,50.16
2022-10-09T19:32:47.187Z,49.90
2022-10-09T19:35:17.777Z,50.10
2022-10-09T19:37:49.043Z,49.90
2022-10-09T19:40:19.656Z,49.72
2022-10-09T19:42:49.988Z,49.83
2022-10-09T19:45:20.381Z,49.99
2022-10-09T19:47:54.222Z,49.69
2022-10-09T19:50:24.958Z,49.66
2022-10-09T19:52:56.035Z,49.17
2022-10-09T19:55:30.746Z,49.88
2022-10-09T19:58:02.056Z,49.57
2022-10-09T20:00:32.741Z,49.64
2022-10-09T20:03:03.392Z,49.13
2022-10-09T20:05:34.781Z,49.15
2022-10-09T20:08:05.395Z,49.25
2022-10-09T20:10:39.445Z,48.46
2022-10-09T20:13:10.083Z,49.03
2022-10-09T20:15:44.094Z,48.05
2022-10-09T20:18:14.451Z,48.78
2022-10-09T20:20:49.152Z,48.18
2022-10-09T20:23:19.603Z,48.53
2022-10-09T20:25:50.031Z,48.76
2022-10-09T20:28:20.446Z,49.02
2022-10-09T20:31:00.872Z,47.43
2022-10-09T20:33:31.325Z,48.75
2022-10-09T20:36:01.848Z,48.59
2022-10-09T20:38:32.480Z,48.89
2022-10-09T20:41:05.786Z,48.41
2022-10-09T20:43:41.242Z,48.00
2022-10-09T20:46:14.684Z,48.57
2022-10-09T20:48:46.033Z,48.72
2022-10-09T20:51:17.027Z,48.53
2022-10-09T20:53:52.202Z,48.58
2022-10-09T20:56:24.551Z,48.30
2022-10-09T20:58:57.089Z,48.40
2022-10-09T21:01:29.448Z,48.71
2022-10-09T21:04:00.728Z,48.44
2022-10-09T21:06:31.692Z,48.14
2022-10-09T21:09:02.111Z,48.28
2022-10-09T21:11:38.481Z,48.16
2022-10-09T21:14:08.890Z,48.30
2022-10-09T21:16:39.331Z,48.18
2022-10-09T21:19:12.186Z,47.48
2022-10-09T21:21:45.337Z,48.18
2022-10-09T21:24:17.799Z,47.89
2022-10-09T21:26:48.535Z,47.91
2022-10-09T21:29:19.350Z,47.63
2022-10-09T21:31:49.754Z,47.54
2022-10-09T21:34:20.182Z,47.67
2022-10-09T21:37:19.943Z,47.68
2022-10-09T21:39:44.401Z,47.57
2022-10-09T21:42:14.770Z,47.28
2022-10-09T21:44:45.136Z,47.48
2022-10-09T21:47:19.874Z,46.92
2022-10-09T21:49:50.225Z,47.27
2022-10-09T21:52:20.644Z,47.03
2022-10-09T21:54:51.092Z,47.17
2022-10-09T21:57:21.536Z,46.82
2022-10-09T21:59:52.418Z,46.66
2022-10-09T22:02:23.120Z,46.93
2022-10-09T22:04:58.151Z,46.90
2022-10-09T22:07:31.314Z,46.72
2022-10-09T22:10:01.934Z,46.61
2022-10-09T22:12:32.554Z,46.70
2022-10-09T22:15:03.186Z,46.97
2022-10-09T22:17:33.548Z,46.68
2022-10-09T22:20:05.198Z,46.97
2022-10-09T22:22:35.670Z,47.06
2022-10-09T22:25:06.627Z,46.94
2022-10-09T22:27:37.544Z,47.00
2022-10-09T22:30:09.204Z,46.85
2022-10-09T22:32:39.780Z,46.77
2022-10-09T22:35:10.778Z,46.77
2022-10-09T22:37:41.510Z,46.86
2022-10-09T22:40:12.145Z,46.69
2022-10-09T22:42:42.680Z,46.91
2022-10-09T22:45:13.552Z,46.57
2022-10-09T22:47:45.745Z,47.05
2022-10-09T22:50:16.587Z,46.78
2022-10-09T22:52:47.258Z,46.86
2022-10-09T22:55:18.576Z,46.78
2022-10-09T22:57:49.023Z,46.73
2022-10-09T23:00:19.643Z,46.84
2022-10-09T23:02:50.298Z,47.16
2022-10-09T23:05:20.986Z,48.40
2022-10-09T23:07:51.557Z,49.07
2022-10-09T23:10:22.126Z,49.77
2022-10-09T23:12:52.662Z,50.51
2022-10-09T23:15:23.264Z,51.41
2022-10-09T23:17:53.671Z,51.67
2022-10-09T23:20:24.097Z,52.32
2022-10-09T23:22:55.164Z,52.83
2022-10-09T23:25:25.535Z,53.09
2022-10-09T23:27:55.885Z,53.48
2022-10-09T23:30:26.198Z,53.97
2022-10-09T23:32:56.899Z,54.06
2022-10-09T23:35:27.592Z,55.00
2022-10-09T23:37:58.033Z,59.25
2022-10-09T23:40:28.466Z,60.61
2022-10-09T23:42:58.947Z,66.71
2022-10-09T23:45:29.413Z,64.52
2022-10-09T23:47:59.861Z,68.88
2022-10-09T23:50:30.204Z,66.57
2022-10-09T23:53:00.618Z,70.80
2022-10-09T23:55:30.961Z,71.00
2022-10-09T23:58:01.428Z,72.75
